메인 페이지
METAR-TAF:

METAR-TAF

공항 :

Woodward, 오클라호마, 미국

위도: 36-26-12N, 경도: 099-31-16W, 고도: 667m

현재 날씨관측

예보는 32분 전, 14:15시(UTC)에 발표되었습니다.
동북동5kt
온도 20°C
습도 64%
기압 1026 hPa
시정: 16.1km
맑음

METAR: KWWR 291415Z AUTO 07005KT 10SM CLR 20/13 A3029 RMK AO2

시각: 09:47 (14:47 UTC)

예보

예보는 3 시간 27분 전, 11:20시(UTC)에 발표되었습니다.
예보 대상 시간: 29일 12시부터 30일 12시까지 (UTC)
남서7kt
시정: 10km
고도 25000ft 상공 구름 조금
29일 1600시부터 (UTC)
남동6kt
시정: 10km
고도 15000ft 상공 구름 조금
29일 2200시부터 (UTC)
남동12kt
시정: 10km
고도 15000ft 상공 구름 보통

TAF: KWWR 291120Z 2912/3012 22007KT P6SM FEW250 FM291600 14006KT P6SM FEW150 FM292200 14012KT P6SM SCT150

4,000개 이상의 공항 관측 자료 및 예보 (METAR 및 TAF 보고).

지도상에서 검색 가능한 기상관측소가 노란 점과 빨간 점으로 표시되어 있습니다.

기상관측소 명을 보려면 표시 위로 마우스를 이동하세요.

날씨 관측과 예보를 보려면 클릭하세요.

지도 변경 : 확대하려면 엑스 표시가 있는 녹색 버튼, 축소하려면 빼기 표시가 있는 녹색 버튼, 다음 페이지의 지도를 보려면 녹색 화살표를 클릭하세요.


METAR-TAF: